createdAt,value
2018-01-29T00:01:38.458Z,2.27
2018-01-29T00:04:05.958Z,2.40
2018-01-29T00:06:33.643Z,2.30
2018-01-29T00:09:01.125Z,2.83
2018-01-29T00:11:28.572Z,2.53
2018-01-29T00:13:56.028Z,2.70
2018-01-29T00:16:23.473Z,2.60
2018-01-29T00:18:50.924Z,2.05
2018-01-29T00:21:18.545Z,1.60
2018-01-29T00:23:47.115Z,2.17
2018-01-29T00:26:15.384Z,2.00
2018-01-29T00:28:43.005Z,1.80
2018-01-29T00:31:11.740Z,1.70
2018-01-29T00:33:39.411Z,1.70
2018-01-29T00:36:06.837Z,1.40
2018-01-29T00:38:34.334Z,1.60
2018-01-29T00:41:01.781Z,2.10
2018-01-29T00:43:29.340Z,1.70
2018-01-29T00:45:56.781Z,1.95
2018-01-29T00:48:24.240Z,2.60
2018-01-29T00:50:51.683Z,1.57
2018-01-29T00:53:19.151Z,1.87
2018-01-29T00:55:46.625Z,1.53
2018-01-29T00:58:14.176Z,1.57
2018-01-29T01:00:41.617Z,1.90
2018-01-29T01:03:09.050Z,1.33
2018-01-29T01:05:36.500Z,1.50
2018-01-29T01:08:03.925Z,1.60
2018-01-29T01:10:31.389Z,1.58
2018-01-29T01:12:59.009Z,1.30
2018-01-29T01:15:26.501Z,1.67
2018-01-29T01:17:53.943Z,1.37
2018-01-29T01:20:21.498Z,1.40
2018-01-29T01:22:48.936Z,1.60
2018-01-29T01:25:16.416Z,1.50
2018-01-29T01:27:44.378Z,1.10
2018-01-29T01:30:11.812Z,1.37
2018-01-29T01:32:39.335Z,1.50
2018-01-29T01:35:06.909Z,1.20
2018-01-29T01:37:34.371Z,1.37
2018-01-29T01:40:01.828Z,1.17
2018-01-29T01:42:29.364Z,1.37
2018-01-29T01:44:56.930Z,1.27
2018-01-29T01:47:24.419Z,1.30
2018-01-29T01:49:51.854Z,1.20
2018-01-29T01:52:19.317Z,1.07
2018-01-29T01:54:46.777Z,0.97
2018-01-29T01:57:14.225Z,0.97
2018-01-29T01:59:42.837Z,1.00
2018-01-29T02:02:10.452Z,1.30
2018-01-29T02:04:37.878Z,1.10
2018-01-29T02:07:05.485Z,1.10
2018-01-29T02:09:32.913Z,1.15
2018-01-29T02:12:00.356Z,1.17
2018-01-29T02:14:27.937Z,0.80
2018-01-29T02:16:55.496Z,1.10
2018-01-29T02:19:22.954Z,1.10
2018-01-29T02:21:50.499Z,1.90
2018-01-29T02:24:17.927Z,1.60
2018-01-29T02:26:46.012Z,1.20
2018-01-29T02:29:13.483Z,1.07
2018-01-29T02:31:40.969Z,1.00
2018-01-29T02:34:08.468Z,1.17
2018-01-29T02:36:35.918Z,1.20
2018-01-29T02:39:03.357Z,1.20
2018-01-29T02:41:30.920Z,1.10
2018-01-29T02:43:58.437Z,0.97
2018-01-29T02:46:25.852Z,1.25
2018-01-29T02:48:53.297Z,1.10
2018-01-29T02:51:20.725Z,1.37
2018-01-29T02:53:48.193Z,1.10
2018-01-29T02:56:16.117Z,1.10
2018-01-29T02:58:43.567Z,1.10
2018-01-29T03:01:10.997Z,1.10
2018-01-29T03:03:38.635Z,1.57
2018-01-29T03:06:06.093Z,1.00
2018-01-29T03:08:33.534Z,1.07
2018-01-29T03:11:01.065Z,0.93
2018-01-29T03:13:28.541Z,1.00
2018-01-29T03:15:56.024Z,1.43
2018-01-29T03:18:23.520Z,1.27
2018-01-29T03:20:50.977Z,1.27
2018-01-29T03:23:18.444Z,0.90
2018-01-29T03:25:46.291Z,1.27
2018-01-29T03:28:13.719Z,1.53
2018-01-29T03:30:41.180Z,1.10
2018-01-29T03:33:08.624Z,1.40
2018-01-29T03:35:36.098Z,0.97
2018-01-29T03:38:03.547Z,1.00
2018-01-29T03:40:31.010Z,0.97
2018-01-29T03:42:58.517Z,1.00
2018-01-29T03:45:26.000Z,1.03
2018-01-29T03:47:53.412Z,1.75
2018-01-29T03:50:20.885Z,1.20
2018-01-29T03:52:48.320Z,1.25
2018-01-29T03:55:18.545Z,1.37
2018-01-29T03:57:46.395Z,1.23
2018-01-29T04:00:13.846Z,1.50
2018-01-29T04:02:41.309Z,1.42
2018-01-29T04:05:08.750Z,1.50
2018-01-29T04:07:36.237Z,1.87
2018-01-29T04:10:03.673Z,1.48
2018-01-29T04:12:33.305Z,1.50
2018-01-29T04:15:00.792Z,1.60
2018-01-29T04:17:28.284Z,1.47
2018-01-29T04:19:55.708Z,1.70
2018-01-29T04:22:23.254Z,2.07
2018-01-29T04:24:50.729Z,1.30
2018-01-29T04:27:18.176Z,1.60
2018-01-29T04:29:46.528Z,2.03
2018-01-29T04:32:13.992Z,2.10
2018-01-29T04:34:41.501Z,1.60
2018-01-29T04:37:08.939Z,2.30
2018-01-29T04:39:36.387Z,1.80
2018-01-29T04:42:03.820Z,1.60
2018-01-29T04:44:31.349Z,2.10
2018-01-29T04:46:58.781Z,2.50
2018-01-29T04:49:26.234Z,2.10
2018-01-29T04:51:53.722Z,2.33
2018-01-29T04:54:21.152Z,1.85
2018-01-29T04:56:48.580Z,2.20
2018-01-29T04:59:16.733Z,2.10
2018-01-29T05:01:44.169Z,1.90
2018-01-29T05:04:11.615Z,2.28
2018-01-29T05:06:39.065Z,1.87
2018-01-29T05:09:10.280Z,1.97
2018-01-29T05:11:47.087Z,2.00
2018-01-29T05:14:14.887Z,2.20
2018-01-29T05:16:42.325Z,1.90
2018-01-29T05:19:09.766Z,1.90
2018-01-29T05:21:38.185Z,2.10
2018-01-29T05:24:05.620Z,2.77
2018-01-29T05:26:33.091Z,2.50
2018-01-29T05:29:00.623Z,2.37
2018-01-29T05:31:28.090Z,2.45
2018-01-29T05:33:55.518Z,2.25
2018-01-29T05:36:29.361Z,2.60
2018-01-29T05:38:58.720Z,2.80
2018-01-29T05:41:26.178Z,2.50
2018-01-29T05:43:53.613Z,2.35
2018-01-29T05:46:21.974Z,1.93
2018-01-29T05:48:49.554Z,2.33
2018-01-29T05:51:17.017Z,2.63
2018-01-29T05:53:44.445Z,2.70
2018-01-29T05:56:11.912Z,2.47
2018-01-29T05:58:39.346Z,2.70
2018-01-29T06:01:06.767Z,2.43
2018-01-29T06:03:34.217Z,2.40
2018-01-29T06:06:01.641Z,2.20
2018-01-29T06:08:29.081Z,2.40
2018-01-29T06:10:56.502Z,2.37
2018-01-29T06:13:23.952Z,2.37
2018-01-29T06:15:51.377Z,2.40
2018-01-29T06:18:18.850Z,2.50
2018-01-29T06:20:47.769Z,3.05
2018-01-29T06:23:15.217Z,2.60
2018-01-29T06:25:42.634Z,2.53
2018-01-29T06:28:10.112Z,2.97
2018-01-29T06:30:37.599Z,2.77
2018-01-29T06:33:05.066Z,2.90
2018-01-29T06:35:32.503Z,2.90
2018-01-29T06:37:59.965Z,3.28
2018-01-29T06:40:27.424Z,2.83
2018-01-29T06:42:54.886Z,3.53
2018-01-29T06:45:22.343Z,2.67
2018-01-29T06:47:49.854Z,2.97
2018-01-29T06:50:17.361Z,3.33
2018-01-29T06:52:44.794Z,3.47
2018-01-29T06:55:12.263Z,3.40
2018-01-29T06:57:39.697Z,3.27
2018-01-29T07:00:07.135Z,3.67
2018-01-29T07:02:34.613Z,3.10
2018-01-29T07:05:02.119Z,3.13
2018-01-29T07:07:29.562Z,3.05
2018-01-29T07:09:57.003Z,3.22
2018-01-29T07:12:24.435Z,3.07
2018-01-29T07:14:52.823Z,3.00
2018-01-29T07:17:20.253Z,3.47
2018-01-29T07:19:48.836Z,3.25
2018-01-29T07:22:16.264Z,3.58
2018-01-29T07:24:43.709Z,3.20
2018-01-29T07:27:11.130Z,3.23
2018-01-29T07:29:38.559Z,3.60
2018-01-29T07:32:06.019Z,3.67
2018-01-29T07:34:33.462Z,3.03
2018-01-29T07:37:00.992Z,3.12
2018-01-29T07:39:28.413Z,2.83
2018-01-29T07:41:55.888Z,2.80
2018-01-29T07:44:23.810Z,2.90
2018-01-29T07:46:51.262Z,2.77
2018-01-29T07:49:18.698Z,3.17
2018-01-29T07:51:46.170Z,3.27
2018-01-29T07:54:13.612Z,3.30
2018-01-29T07:56:41.195Z,3.23
2018-01-29T07:59:08.634Z,2.80
2018-01-29T08:01:36.103Z,3.27
2018-01-29T08:04:03.534Z,2.87
2018-01-29T08:06:31.140Z,3.53
2018-01-29T08:08:58.596Z,2.97
2018-01-29T08:11:26.031Z,3.17
2018-01-29T08:13:53.510Z,3.00
2018-01-29T08:16:20.945Z,3.20
2018-01-29T08:18:48.408Z,3.27
2018-01-29T08:21:15.836Z,2.87
2018-01-29T08:23:43.600Z,3.30
2018-01-29T08:26:11.068Z,3.03
2018-01-29T08:28:38.632Z,2.90
2018-01-29T08:31:06.066Z,3.00
2018-01-29T08:33:33.523Z,3.10
2018-01-29T08:36:00.971Z,2.07
2018-01-29T08:38:28.478Z,2.70
2018-01-29T08:40:55.956Z,2.55
2018-01-29T08:43:23.435Z,3.08
2018-01-29T08:45:50.907Z,2.70
2018-01-29T08:48:18.587Z,2.40
2018-01-29T08:50:46.022Z,2.90
2018-01-29T08:53:13.474Z,2.60
2018-01-29T08:55:40.917Z,3.20
2018-01-29T08:58:08.397Z,2.70
2018-01-29T09:00:35.989Z,2.60
2018-01-29T09:03:03.433Z,2.70
2018-01-29T09:05:30.879Z,2.75
2018-01-29T09:07:58.401Z,3.20
2018-01-29T09:10:25.877Z,2.60
2018-01-29T09:12:53.320Z,2.80
2018-01-29T09:15:20.793Z,2.83
2018-01-29T09:17:48.275Z,2.50
2018-01-29T09:20:15.726Z,2.53
2018-01-29T09:22:44.101Z,2.83
2018-01-29T09:25:11.559Z,3.20
2018-01-29T09:27:38.997Z,2.17
2018-01-29T09:30:06.492Z,2.90
2018-01-29T09:32:33.921Z,2.80
2018-01-29T09:35:01.541Z,3.20
2018-01-29T09:37:28.976Z,3.07
2018-01-29T09:39:57.022Z,4.17
2018-01-29T09:42:24.541Z,3.70
2018-01-29T09:44:53.177Z,3.10
2018-01-29T09:47:20.725Z,3.43
2018-01-29T09:49:48.428Z,3.05
2018-01-29T09:52:16.286Z,3.00
2018-01-29T09:54:43.882Z,3.47
2018-01-29T09:57:11.319Z,2.80
2018-01-29T09:59:38.888Z,2.90
2018-01-29T10:02:06.322Z,2.57
2018-01-29T10:04:33.785Z,2.15
2018-01-29T10:07:01.231Z,2.10
2018-01-29T10:09:28.735Z,2.22
2018-01-29T10:11:56.193Z,1.87
2018-01-29T10:14:23.625Z,2.45
2018-01-29T10:16:51.152Z,2.40
2018-01-29T10:19:18.603Z,2.37
2018-01-29T10:21:46.070Z,2.13
2018-01-29T10:24:13.512Z,2.40
2018-01-29T10:26:40.962Z,2.90
2018-01-29T10:29:08.471Z,4.13
2018-01-29T10:31:36.032Z,3.80
2018-01-29T10:34:03.481Z,2.78
2018-01-29T10:36:30.939Z,3.23
2018-01-29T10:38:58.409Z,2.50
2018-01-29T10:41:25.906Z,2.60
2018-01-29T10:43:53.332Z,2.80
2018-01-29T10:46:20.874Z,2.97
2018-01-29T10:48:48.534Z,2.63
2018-01-29T10:51:16.003Z,3.30
2018-01-29T10:53:43.645Z,3.20
2018-01-29T10:56:11.109Z,3.37
2018-01-29T10:58:38.717Z,3.00
2018-01-29T11:01:11.846Z,3.43
2018-01-29T11:03:39.426Z,3.03
2018-01-29T11:06:06.865Z,3.60
2018-01-29T11:08:34.317Z,3.37
2018-01-29T11:11:01.749Z,4.30
2018-01-29T11:13:29.205Z,3.85
2018-01-29T11:15:56.642Z,3.80
2018-01-29T11:18:26.685Z,3.60
2018-01-29T11:20:54.284Z,3.70
2018-01-29T11:23:21.739Z,2.87
2018-01-29T11:25:49.210Z,3.47
2018-01-29T11:28:16.678Z,3.12
2018-01-29T11:30:44.159Z,3.73
2018-01-29T11:33:11.625Z,3.55
2018-01-29T11:35:39.069Z,3.73
2018-01-29T11:38:06.535Z,3.97
2018-01-29T11:40:34.867Z,3.30
2018-01-29T11:43:02.321Z,3.20
2018-01-29T11:45:29.758Z,3.67
2018-01-29T11:47:57.241Z,4.97
2018-01-29T11:50:24.674Z,4.60
2018-01-29T11:52:52.113Z,3.47
2018-01-29T11:55:19.556Z,3.30
2018-01-29T11:57:46.997Z,3.83
2018-01-29T12:00:14.442Z,3.67
2018-01-29T12:02:41.885Z,3.10
2018-01-29T12:05:09.385Z,3.73
2018-01-29T12:07:36.798Z,3.23
2018-01-29T12:10:04.399Z,4.20
2018-01-29T12:12:31.829Z,4.97
2018-01-29T12:14:59.285Z,4.53
2018-01-29T12:17:27.265Z,4.00
2018-01-29T12:19:56.974Z,5.10
2018-01-29T12:22:24.411Z,5.07
2018-01-29T12:24:51.878Z,4.00
2018-01-29T12:27:19.401Z,6.00
2018-01-29T12:29:46.877Z,5.27
2018-01-29T12:32:14.411Z,4.70
2018-01-29T12:34:41.857Z,4.75
2018-01-29T12:37:09.313Z,4.63
2018-01-29T12:39:36.793Z,5.00
2018-01-29T12:42:04.229Z,5.20
2018-01-29T12:44:31.678Z,4.90
2018-01-29T12:46:59.165Z,4.80
2018-01-29T12:49:26.597Z,4.90
2018-01-29T12:51:54.054Z,5.87
2018-01-29T12:54:21.485Z,5.10
2018-01-29T12:56:49.113Z,4.10
2018-01-29T12:59:16.793Z,4.03
2018-01-29T13:01:44.242Z,4.33
2018-01-29T13:04:11.687Z,4.37
2018-01-29T13:06:39.142Z,4.80
2018-01-29T13:09:06.589Z,5.77
2018-01-29T13:11:34.048Z,4.13
2018-01-29T13:14:01.505Z,3.90
2018-01-29T13:16:28.953Z,3.93
2018-01-29T13:18:56.382Z,3.35
2018-01-29T13:21:23.833Z,4.20
2018-01-29T13:23:51.281Z,4.10
2018-01-29T13:26:19.733Z,3.70
2018-01-29T13:28:47.529Z,3.23
2018-01-29T13:31:14.969Z,3.40
2018-01-29T13:33:42.559Z,3.67
2018-01-29T13:36:10.006Z,4.10
2018-01-29T13:38:37.466Z,3.40
2018-01-29T13:41:04.890Z,4.33
2018-01-29T13:43:32.344Z,3.73
2018-01-29T13:45:59.769Z,4.60
2018-01-29T13:48:27.268Z,4.10
2018-01-29T13:50:54.687Z,3.78
2018-01-29T13:53:22.140Z,4.53
2018-01-29T13:55:49.575Z,4.10
2018-01-29T13:58:17.257Z,3.40
2018-01-29T14:00:44.702Z,3.33
2018-01-29T14:03:12.209Z,3.60
2018-01-29T14:05:39.687Z,3.70
2018-01-29T14:08:07.136Z,2.70
2018-01-29T14:10:34.556Z,4.60
2018-01-29T14:13:02.097Z,3.50
2018-01-29T14:15:29.531Z,3.92
2018-01-29T14:17:57.057Z,3.42
2018-01-29T14:20:24.551Z,3.28
2018-01-29T14:22:52.033Z,3.60
2018-01-29T14:25:19.534Z,3.30
2018-01-29T14:27:47.113Z,3.30
2018-01-29T14:30:14.553Z,3.67
2018-01-29T14:32:41.986Z,3.10
2018-01-29T14:35:09.428Z,3.40
2018-01-29T14:37:36.866Z,3.30
2018-01-29T14:40:04.470Z,3.47
2018-01-29T14:42:31.949Z,3.57
2018-01-29T14:44:59.405Z,3.90
2018-01-29T14:47:26.845Z,4.53
2018-01-29T14:49:54.297Z,4.30
2018-01-29T14:52:21.766Z,4.22
2018-01-29T14:54:49.702Z,3.90
2018-01-29T14:57:17.179Z,3.73
2018-01-29T14:59:44.641Z,3.67
2018-01-29T15:02:12.076Z,2.80
2018-01-29T15:04:39.596Z,3.43
2018-01-29T15:07:07.169Z,3.93
2018-01-29T15:09:34.636Z,4.10
2018-01-29T15:12:02.091Z,7.90
2018-01-29T15:14:29.531Z,7.77
2018-01-29T15:16:58.248Z,3.50
2018-01-29T15:19:25.825Z,3.97
2018-01-29T15:21:53.273Z,4.53
2018-01-29T15:24:20.714Z,5.13
2018-01-29T15:26:48.161Z,5.53
2018-01-29T15:29:15.589Z,4.73
2018-01-29T15:31:43.057Z,4.33
2018-01-29T15:34:10.637Z,3.90
2018-01-29T15:36:38.076Z,3.65
2018-01-29T15:39:05.537Z,3.37
2018-01-29T15:41:32.989Z,2.70
2018-01-29T15:44:00.593Z,3.15
2018-01-29T15:46:28.439Z,2.87
2018-01-29T15:48:55.847Z,2.70
2018-01-29T15:51:23.313Z,2.60
2018-01-29T15:53:50.792Z,2.83
2018-01-29T15:56:18.357Z,2.93
2018-01-29T15:58:45.802Z,3.80
2018-01-29T16:01:13.288Z,3.30
2018-01-29T16:03:40.741Z,4.17
2018-01-29T16:06:08.177Z,2.70
2018-01-29T16:08:35.714Z,2.80
2018-01-29T16:11:03.156Z,2.53
2018-01-29T16:13:30.573Z,2.50
2018-01-29T16:15:58.079Z,2.50
2018-01-29T16:18:25.518Z,2.50
2018-01-29T16:20:52.973Z,3.20
2018-01-29T16:23:20.530Z,2.70
2018-01-29T16:25:48.674Z,2.93
2018-01-29T16:28:16.102Z,3.27
2018-01-29T16:30:43.722Z,2.77
2018-01-29T16:33:11.149Z,3.42
2018-01-29T16:35:39.698Z,3.10
2018-01-29T16:38:07.138Z,2.37
2018-01-29T16:40:34.773Z,3.40
2018-01-29T16:43:02.257Z,4.05
2018-01-29T16:45:29.746Z,4.20
2018-01-29T16:47:57.538Z,3.83
2018-01-29T16:50:25.058Z,3.80
2018-01-29T16:52:52.500Z,4.40
2018-01-29T16:55:20.519Z,4.22
2018-01-29T16:57:48.073Z,4.40
2018-01-29T17:00:15.505Z,3.03
2018-01-29T17:02:43.264Z,2.90
2018-01-29T17:05:10.702Z,3.10
2018-01-29T17:07:38.861Z,2.87
2018-01-29T17:10:06.281Z,3.30
2018-01-29T17:12:33.721Z,2.70
2018-01-29T17:15:01.155Z,2.90
2018-01-29T17:17:28.681Z,1.67
2018-01-29T17:19:56.120Z,2.60
2018-01-29T17:22:23.578Z,2.60
2018-01-29T17:24:51.421Z,2.07
2018-01-29T17:27:20.002Z,2.13
2018-01-29T17:29:47.515Z,1.80
2018-01-29T17:32:14.996Z,2.20
2018-01-29T17:34:42.574Z,1.70
2018-01-29T17:37:10.343Z,2.30
2018-01-29T17:39:37.866Z,2.00
2018-01-29T17:42:05.298Z,6.73
2018-01-29T17:44:34.068Z,2.10
2018-01-29T17:47:01.510Z,2.70
2018-01-29T17:49:28.961Z,1.83
2018-01-29T17:51:56.413Z,3.13
2018-01-29T17:54:23.854Z,2.60
2018-01-29T17:56:51.322Z,2.57
2018-01-29T17:59:18.769Z,1.77
2018-01-29T18:01:46.521Z,2.00
2018-01-29T18:04:13.967Z,2.10
2018-01-29T18:06:41.446Z,1.57
2018-01-29T18:09:08.983Z,1.40
2018-01-29T18:11:36.452Z,1.80
2018-01-29T18:14:03.890Z,2.22
2018-01-29T18:16:31.385Z,2.10
2018-01-29T18:18:59.037Z,1.90
2018-01-29T18:21:26.486Z,1.67
2018-01-29T18:23:55.517Z,2.50
2018-01-29T18:26:22.962Z,2.00
2018-01-29T18:28:51.193Z,2.00
2018-01-29T18:31:18.674Z,2.07
2018-01-29T18:33:50.941Z,2.47
2018-01-29T18:36:18.418Z,1.90
2018-01-29T18:38:45.862Z,2.30
2018-01-29T18:41:13.363Z,3.00
2018-01-29T18:43:40.809Z,2.47
2018-01-29T18:46:08.237Z,1.67
2018-01-29T18:48:35.808Z,1.60
2018-01-29T18:51:03.238Z,1.60
2018-01-29T18:53:30.701Z,2.00
2018-01-29T18:55:58.140Z,1.93
2018-01-29T18:58:25.597Z,1.50
2018-01-29T19:00:53.027Z,2.20
2018-01-29T19:03:21.018Z,1.87
2018-01-29T19:05:48.484Z,1.80
2018-01-29T19:08:15.961Z,2.40
2018-01-29T19:10:43.397Z,1.90
2018-01-29T19:13:10.850Z,2.10
2018-01-29T19:15:38.288Z,2.20
2018-01-29T19:18:05.751Z,2.15
2018-01-29T19:20:33.192Z,2.20
2018-01-29T19:23:00.653Z,1.90
2018-01-29T19:25:28.094Z,2.20
2018-01-29T19:27:55.570Z,2.30
2018-01-29T19:30:23.005Z,2.40
2018-01-29T19:32:51.361Z,2.33
2018-01-29T19:35:18.812Z,3.47
2018-01-29T19:37:46.255Z,3.90
2018-01-29T19:40:13.737Z,2.90
2018-01-29T19:42:41.291Z,2.60
2018-01-29T19:45:08.747Z,2.55
2018-01-29T19:47:36.185Z,2.72
2018-01-29T19:50:03.901Z,2.97
2018-01-29T19:52:31.385Z,2.43
2018-01-29T19:54:58.846Z,2.10
2018-01-29T19:57:26.292Z,2.80
2018-01-29T19:59:53.746Z,3.07
2018-01-29T20:02:21.385Z,3.15
2018-01-29T20:04:49.000Z,2.43
2018-01-29T20:07:16.431Z,2.27
2018-01-29T20:09:43.965Z,2.30
2018-01-29T20:12:11.401Z,2.80
2018-01-29T20:14:38.873Z,3.40
2018-01-29T20:17:06.422Z,2.42
2018-01-29T20:19:33.868Z,2.83
2018-01-29T20:22:01.309Z,2.83
2018-01-29T20:24:28.742Z,2.50
2018-01-29T20:26:56.213Z,2.25
2018-01-29T20:29:23.666Z,3.70
2018-01-29T20:31:51.534Z,2.80
2018-01-29T20:34:18.994Z,2.90
2018-01-29T20:36:46.729Z,2.70
2018-01-29T20:39:14.165Z,2.67
2018-01-29T20:41:41.669Z,2.40
2018-01-29T20:44:09.196Z,2.70
2018-01-29T20:46:36.709Z,2.83
2018-01-29T20:49:04.509Z,2.90
2018-01-29T20:51:31.994Z,2.80
2018-01-29T20:53:59.440Z,3.20
2018-01-29T20:56:26.925Z,3.00
2018-01-29T20:58:54.365Z,3.07
2018-01-29T21:01:21.893Z,2.97
2018-01-29T21:03:49.399Z,3.50
2018-01-29T21:06:16.821Z,3.30
2018-01-29T21:08:44.318Z,3.13
2018-01-29T21:11:12.026Z,2.93
2018-01-29T21:16:13.433Z,2.97
2018-01-29T21:18:40.892Z,2.60
2018-01-29T21:21:08.333Z,2.60
2018-01-29T21:23:35.788Z,2.80
2018-01-29T21:26:03.894Z,2.90
2018-01-29T21:28:31.350Z,3.20
2018-01-29T21:30:58.806Z,2.78
2018-01-29T21:33:26.253Z,3.00
2018-01-29T21:35:53.783Z,3.20
2018-01-29T21:38:22.169Z,2.97
2018-01-29T21:40:50.006Z,3.50
2018-01-29T21:43:17.459Z,3.20
2018-01-29T21:45:44.997Z,3.05
2018-01-29T21:48:12.430Z,3.33
2018-01-29T21:50:39.884Z,3.20
2018-01-29T21:53:07.321Z,3.00
2018-01-29T21:55:34.799Z,2.75
2018-01-29T21:58:02.361Z,3.20
2018-01-29T22:00:29.830Z,3.40
2018-01-29T22:02:57.252Z,3.00
2018-01-29T22:05:24.697Z,3.50
2018-01-29T22:07:52.176Z,3.10
2018-01-29T22:10:19.681Z,2.80
2018-01-29T22:12:47.334Z,2.43
2018-01-29T22:15:14.782Z,2.97
2018-01-29T22:17:42.317Z,2.70
2018-01-29T22:20:09.869Z,2.80
2018-01-29T22:22:37.327Z,3.40
2018-01-29T22:25:04.786Z,3.10
2018-01-29T22:27:32.251Z,3.10
2018-01-29T22:29:59.703Z,3.10
2018-01-29T22:32:27.183Z,2.70
2018-01-29T22:34:54.642Z,2.90
2018-01-29T22:37:22.294Z,2.65
2018-01-29T22:39:49.745Z,2.70
2018-01-29T22:42:17.209Z,2.80
2018-01-29T22:44:44.829Z,2.60
2018-01-29T22:47:12.337Z,3.20
2018-01-29T22:49:39.782Z,3.30
2018-01-29T22:52:07.234Z,3.17
2018-01-29T22:54:34.697Z,3.00
2018-01-29T22:57:02.159Z,3.13
2018-01-29T22:59:29.605Z,2.40
2018-01-29T23:01:57.085Z,2.62
2018-01-29T23:04:24.546Z,3.33
2018-01-29T23:06:52.342Z,3.83
2018-01-29T23:09:19.850Z,4.07
2018-01-29T23:11:47.281Z,3.72
2018-01-29T23:14:14.752Z,4.53
2018-01-29T23:16:42.209Z,3.60
2018-01-29T23:19:09.700Z,3.60
2018-01-29T23:21:37.151Z,3.53
2018-01-29T23:24:04.612Z,3.50
2018-01-29T23:26:32.054Z,3.03
2018-01-29T23:28:59.501Z,3.13
2018-01-29T23:31:26.921Z,3.62
2018-01-29T23:33:54.463Z,3.10
2018-01-29T23:36:24.723Z,3.97
2018-01-29T23:38:52.641Z,4.00
2018-01-29T23:41:20.070Z,4.33
2018-01-29T23:43:47.518Z,3.37
2018-01-29T23:46:14.982Z,2.10
2018-01-29T23:48:42.445Z,2.03
2018-01-29T23:51:09.926Z,2.33
2018-01-29T23:53:37.381Z,2.10
2018-01-29T23:56:04.824Z,2.30
2018-01-29T23:58:32.253Z,2.67
